Terminal Aerodrome Forecast
Issued by NWS State College, PA

Home | Current Version | Previous Version | Text Only | Print | Product List | Glossary On
Versions: 1 2 3 4 5 6 7 8 9 10 11 12 13 14 15 16 17 18 19 20 21 22 23 24 25 26 27 28 29 30
000
FTUS41 KCTP 300927 AAA
TAFIPT
TAF AMD
KIPT 300927Z 3009/3106 04007KT P6SM SCT120 BKN250
     FM301200 09008KT P6SM OVC150
     FM301700 12008KT P6SM BKN040 OVC100
     FM302300 13010G20KT 3SM -RA BR OVC025=

USA.gov is the U.S. government's official web portal to all federal, state and local government web resources and services.